Time;durP1;ratioP1;P1;durP2;ratioP2;P2;SDS_P1;SDS_P2;PMS_P1;PMS_P2;Temp;Humidity;BMP_temperature;BMP_pressure;BME280_temperature;BME280_humidity;BME280_pressure;Samples;Min_cycle;Max_cycle;Signal;HPM_P1;HPM_P2
2023/03/30 00:00:33;;;;;;;5.87;1.90;;;;;;;;;;5056107;28;20454;-77
2023/03/30 00:03:01;;;;;;;4.00;1.90;;;;;;;;;;5055026;28;20948;-77
2023/03/30 00:05:27;;;;;;;3.93;2.20;;;;;;;;;;5055294;28;20511;-77
2023/03/30 00:07:54;;;;;;;3.50;1.63;;;;;;;;;;5055322;28;20475;-77
2023/03/30 00:10:20;;;;;;;4.20;1.53;;;;;;;;;;5055673;28;20411;-77
2023/03/30 00:12:49;;;;;;;7.97;2.50;;;;;;;;;;5055265;28;20396;-77
2023/03/30 00:15:16;;;;;;;3.80;1.93;;;;;;;;;;5056490;28;20185;-77
2023/03/30 00:17:42;;;;;;;4.20;2.20;;;;;;;;;;5055439;28;20736;-77
2023/03/30 00:20:10;;;;;;;2.20;1.38;;;;;;;;;;5055864;28;20442;-77
2023/03/30 00:22:36;;;;;;;5.03;2.80;;;;;;;;;;5054951;28;20687;-77
2023/03/30 00:25:02;;;;;;;6.67;2.03;;;;;;;;;;5055296;28;20435;-77
2023/03/30 00:27:28;;;;;;;3.13;1.90;;;;;;;;;;5055448;28;20459;-77
2023/03/30 00:29:54;;;;;;;2.83;2.20;;;;;;;;;;5055034;28;20491;-77
2023/03/30 00:32:20;;;;;;;3.33;1.77;;;;;;;;;;5055647;28;20426;-77
2023/03/30 00:34:46;;;;;;;5.37;2.37;;;;;;;;;;5056867;28;20490;-77
2023/03/30 00:37:14;;;;;;;4.83;2.10;;;;;;;;;;5059602;28;20447;-77
2023/03/30 00:39:40;;;;;;;3.63;1.83;;;;;;;;;;5059234;28;20921;-77
2023/03/30 00:42:05;;;;;;;7.83;2.30;;;;;;;;;;5059596;28;20412;-77
2023/03/30 00:44:50;;;;;;;7.07;2.10;;;;;;;;;;5059835;28;20965;-77
2023/03/30 00:47:17;;;;;;;6.47;1.83;;;;;;;;;;5059426;28;20516;-77
2023/03/30 00:49:43;;;;;;;2.40;1.50;;;;;;;;;;5059002;28;21069;-77
2023/03/30 00:52:10;;;;;;;4.43;1.80;;;;;;;;;;5058905;28;20426;-77
2023/03/30 00:54:37;;;;;;;8.73;2.35;;;;;;;;;;5059530;28;20396;-77
2023/03/30 00:57:03;;;;;;;6.22;1.90;;;;;;;;;;5059051;28;20169;-77
2023/03/30 00:59:29;;;;;;;2.63;1.73;;;;;;;;;;5059316;28;20212;-77
2023/03/30 01:01:56;;;;;;;3.57;1.73;;;;;;;;;;5058598;28;20467;-77
2023/03/30 01:04:21;;;;;;;5.33;1.33;;;;;;;;;;5058958;28;20395;-77
2023/03/30 01:06:50;;;;;;;5.03;1.70;;;;;;;;;;5058909;28;20481;-77
2023/03/30 01:09:17;;;;;;;2.70;1.67;;;;;;;;;;5058618;28;20988;-77
2023/03/30 01:11:43;;;;;;;6.37;2.17;;;;;;;;;;5058534;28;20536;-77
2023/03/30 01:14:11;;;;;;;3.63;2.23;;;;;;;;;;5058791;28;20408;-77
2023/03/30 01:17:00;;;;;;;5.07;1.67;;;;;;;;;;5058676;28;20550;-77
2023/03/30 01:19:44;;;;;;;2.63;1.43;;;;;;;;;;5059265;28;20411;-77
2023/03/30 01:22:29;;;;;;;10.50;2.30;;;;;;;;;;5059154;28;20396;-77
2023/03/30 01:25:14;;;;;;;6.37;2.10;;;;;;;;;;5058381;28;20408;-77
2023/03/30 01:27:44;;;;;;;4.90;2.00;;;;;;;;;;5058717;28;20459;-77
2023/03/30 01:30:13;;;;;;;5.10;1.80;;;;;;;;;;5058933;28;20570;-77
2023/03/30 01:32:45;;;;;;;9.13;1.87;;;;;;;;;;5058706;28;20507;-77
2023/03/30 01:35:30;;;;;;;2.90;1.40;;;;;;;;;;5059288;28;20383;-77
2023/03/30 01:38:20;;;;;;;7.10;2.20;;;;;;;;;;5058402;28;20408;-77
2023/03/30 01:40:49;;;;;;;4.10;1.90;;;;;;;;;;5040021;28;20447;-77
2023/03/30 01:43:35;;;;;;;4.97;1.90;;;;;;;;;;5058811;28;20821;-77
2023/03/30 01:46:04;;;;;;;5.53;1.70;;;;;;;;;;5056779;28;20414;-77
2023/03/30 01:48:34;;;;;;;5.83;1.83;;;;;;;;;;5058091;28;20451;-77
2023/03/30 01:51:04;;;;;;;5.53;1.80;;;;;;;;;;5058501;28;20401;-77
2023/03/30 01:53:30;;;;;;;3.23;1.73;;;;;;;;;;5058503;28;20966;-77
2023/03/30 01:56:18;;;;;;;3.27;2.10;;;;;;;;;;5058263;28;20447;-78
2023/03/30 01:58:50;;;;;;;3.40;1.70;;;;;;;;;;5057959;28;20408;-77
2023/03/30 02:01:19;;;;;;;4.60;1.60;;;;;;;;;;5057778;28;20471;-77
2023/03/30 02:03:47;;;;;;;3.53;1.80;;;;;;;;;;5057918;28;20415;-77
2023/03/30 02:06:23;;;;;;;2.40;1.30;;;;;;;;;;5057919;28;20404;-78
2023/03/30 02:08:50;;;;;;;4.57;1.70;;;;;;;;;;5057378;28;20408;-78
2023/03/30 02:11:16;;;;;;;5.50;1.70;;;;;;;;;;5057594;28;20395;-77
2023/03/30 02:13:42;;;;;;;5.60;2.30;;;;;;;;;;5057853;28;20419;-77
2023/03/30 02:16:12;;;;;;;4.17;1.70;;;;;;;;;;5057523;28;20405;-77
2023/03/30 02:18:38;;;;;;;5.57;2.03;;;;;;;;;;5057832;28;20406;-78
2023/03/30 02:21:04;;;;;;;3.40;1.60;;;;;;;;;;5057178;28;20400;-80
2023/03/30 02:23:33;;;;;;;4.73;2.03;;;;;;;;;;5057538;28;20542;-78
2023/03/30 02:26:00;;;;;;;4.20;2.00;;;;;;;;;;5057088;28;20466;-78
2023/03/30 02:28:26;;;;;;;4.20;1.73;;;;;;;;;;5058195;28;20802;-77
2023/03/30 02:30:52;;;;;;;5.67;2.20;;;;;;;;;;5057756;28;20412;-78
2023/03/30 02:33:24;;;;;;;5.47;2.27;;;;;;;;;;5057767;28;20408;-78
2023/03/30 02:35:51;;;;;;;4.60;2.00;;;;;;;;;;5057196;28;20507;-77
2023/03/30 02:38:35;;;;;;;6.63;1.83;;;;;;;;;;5057016;28;20823;-77
2023/03/30 02:41:07;;;;;;;6.27;2.03;;;;;;;;;;5057131;28;20483;-77
2023/03/30 02:43:52;;;;;;;5.67;2.73;;;;;;;;;;5057877;28;20424;-77
2023/03/30 02:46:18;;;;;;;4.40;1.50;;;;;;;;;;5057486;28;20447;-77
2023/03/30 02:48:59;;;;;;;6.57;1.90;;;;;;;;;;5057061;28;20419;-77
2023/03/30 02:51:42;;;;;;;4.17;1.70;;;;;;;;;;5057560;28;20400;-78
2023/03/30 02:54:08;;;;;;;3.13;1.80;;;;;;;;;;5057186;28;20475;-78
2023/03/30 02:56:46;;;;;;;13.40;2.60;;;;;;;;;;5057067;28;20423;-78
2023/03/30 02:59:23;;;;;;;5.27;1.80;;;;;;;;;;5056516;28;20598;-78
2023/03/30 03:01:56;;;;;;;4.57;1.90;;;;;;;;;;5056650;28;20455;-78
2023/03/30 03:04:23;;;;;;;4.00;1.37;;;;;;;;;;5057402;28;20422;-78
2023/03/30 03:06:52;;;;;;;4.50;1.80;;;;;;;;;;5056826;28;20459;-78
2023/03/30 03:09:19;;;;;;;4.50;1.53;;;;;;;;;;5056998;28;20408;-78
2023/03/30 03:11:45;;;;;;;3.80;1.93;;;;;;;;;;5056997;28;20396;-78
2023/03/30 03:14:11;;;;;;;6.57;2.17;;;;;;;;;;5056999;28;20406;-78
2023/03/30 03:16:37;;;;;;;6.57;2.10;;;;;;;;;;5057038;28;20448;-78
2023/03/30 03:19:03;;;;;;;4.37;1.90;;;;;;;;;;5056719;28;20473;-78
2023/03/30 03:21:29;;;;;;;3.33;2.00;;;;;;;;;;5057430;28;20392;-78
2023/03/30 03:23:55;;;;;;;5.10;1.77;;;;;;;;;;5056963;28;20492;-78
2023/03/30 03:26:22;;;;;;;8.90;1.93;;;;;;;;;;5026983;28;20497;-78
2023/03/30 03:28:48;;;;;;;5.27;1.90;;;;;;;;;;5017544;28;20417;-78
2023/03/30 03:31:14;;;;;;;5.60;1.90;;;;;;;;;;5016874;28;20421;-77
2023/03/30 03:33:40;;;;;;;4.80;2.20;;;;;;;;;;5017347;28;20414;-77
2023/03/30 03:36:06;;;;;;;6.40;2.20;;;;;;;;;;5017175;28;20410;-78
2023/03/30 03:38:32;;;;;;;3.50;1.53;;;;;;;;;;5016900;28;20452;-77
2023/03/30 03:40:59;;;;;;;6.10;1.90;;;;;;;;;;5016648;28;20417;-77
2023/03/30 03:43:25;;;;;;;4.90;1.97;;;;;;;;;;5017103;28;20435;-77
2023/03/30 03:45:51;;;;;;;7.70;1.87;;;;;;;;;;5016845;28;20394;-77
2023/03/30 03:48:19;;;;;;;11.90;2.50;;;;;;;;;;5017353;28;20469;-77
2023/03/30 03:50:45;;;;;;;5.10;1.93;;;;;;;;;;5016719;28;20417;-77
2023/03/30 03:53:12;;;;;;;4.27;1.73;;;;;;;;;;5016309;28;20405;-77
2023/03/30 03:55:38;;;;;;;7.90;2.30;;;;;;;;;;5017129;28;20541;-78
2023/03/30 03:58:06;;;;;;;8.30;2.27;;;;;;;;;;5016923;28;20528;-78
2023/03/30 04:00:32;;;;;;;4.50;2.20;;;;;;;;;;5016597;28;20436;-78
2023/03/30 04:02:59;;;;;;;3.03;1.70;;;;;;;;;;5016219;28;21051;-77
2023/03/30 04:05:25;;;;;;;6.00;1.93;;;;;;;;;;5016757;28;20420;-78
2023/03/30 04:07:55;;;;;;;3.90;2.17;;;;;;;;;;5016565;28;20458;-77
2023/03/30 04:10:21;;;;;;;4.90;2.13;;;;;;;;;;5016504;28;20394;-78
2023/03/30 04:12:47;;;;;;;5.70;1.67;;;;;;;;;;5016690;28;20413;-78
2023/03/30 04:15:13;;;;;;;8.40;2.50;;;;;;;;;;5015944;28;20410;-78
2023/03/30 04:17:39;;;;;;;3.50;2.17;;;;;;;;;;5016658;28;20418;-78
2023/03/30 04:20:10;;;;;;;2.93;1.70;;;;;;;;;;5016162;28;20418;-77
2023/03/30 04:22:40;;;;;;;5.63;2.10;;;;;;;;;;5016588;28;20421;-78
2023/03/30 04:25:07;;;;;;;4.63;2.10;;;;;;;;;;5016436;28;20421;-78
2023/03/30 04:27:33;;;;;;;7.20;2.77;;;;;;;;;;5016211;28;20465;-77
2023/03/30 04:30:00;;;;;;;5.40;2.30;;;;;;;;;;5016241;28;20417;-78
2023/03/30 04:32:26;;;;;;;7.00;2.67;;;;;;;;;;5016542;28;20756;-78
2023/03/30 04:34:53;;;;;;;3.87;2.30;;;;;;;;;;5016153;28;20511;-77
2023/03/30 04:37:28;;;;;;;8.53;2.50;;;;;;;;;;5016732;28;20413;-78
2023/03/30 04:39:56;;;;;;;3.97;2.23;;;;;;;;;;5016181;28;20417;-77
2023/03/30 04:42:29;;;;;;;8.37;2.60;;;;;;;;;;5016252;28;20424;-77
2023/03/30 04:44:55;;;;;;;8.27;2.30;;;;;;;;;;5016265;28;20456;-77
2023/03/30 04:47:21;;;;;;;6.63;2.30;;;;;;;;;;5016271;28;20946;-77
2023/03/30 04:49:47;;;;;;;6.63;2.50;;;;;;;;;;5016690;28;20459;-77
2023/03/30 04:52:13;;;;;;;8.83;2.60;;;;;;;;;;4998757;28;20590;-77
2023/03/30 04:54:39;;;;;;;7.20;2.27;;;;;;;;;;5016239;28;20394;-78
2023/03/30 04:57:06;;;;;;;7.67;2.47;;;;;;;;;;5015875;28;20416;-77
2023/03/30 04:59:32;;;;;;;3.23;2.80;;;;;;;;;;5016237;28;20417;-78
2023/03/30 05:01:58;;;;;;;8.70;2.20;;;;;;;;;;5015573;28;20457;-78
2023/03/30 05:04:24;;;;;;;11.27;2.10;;;;;;;;;;5016521;28;20405;-78
2023/03/30 05:06:50;;;;;;;8.27;2.90;;;;;;;;;;5015929;28;20539;-77
2023/03/30 05:09:16;;;;;;;4.90;2.00;;;;;;;;;;5015904;28;20458;-77
2023/03/30 05:11:42;;;;;;;4.43;2.30;;;;;;;;;;5015762;28;20460;-78
2023/03/30 05:14:08;;;;;;;5.90;3.07;;;;;;;;;;5016049;28;20414;-78
2023/03/30 05:16:34;;;;;;;9.00;2.83;;;;;;;;;;5021874;28;20979;-77
2023/03/30 05:19:00;;;;;;;5.60;2.83;;;;;;;;;;5035659;28;20420;-77
2023/03/30 05:21:26;;;;;;;4.67;2.60;;;;;;;;;;5038474;28;20413;-77
2023/03/30 05:23:52;;;;;;;8.50;2.53;;;;;;;;;;5038977;28;20420;-77
2023/03/30 05:26:18;;;;;;;10.37;3.17;;;;;;;;;;5039176;28;20412;-77
2023/03/30 05:28:44;;;;;;;7.20;3.20;;;;;;;;;;5039302;28;20471;-77
2023/03/30 05:31:10;;;;;;;7.07;2.50;;;;;;;;;;5039131;28;20820;-78
2023/03/30 05:33:36;;;;;;;6.40;2.83;;;;;;;;;;5039429;28;20397;-78
2023/03/30 05:36:02;;;;;;;9.40;2.97;;;;;;;;;;5039213;28;20424;-77
2023/03/30 05:38:28;;;;;;;12.43;2.87;;;;;;;;;;5039866;28;20417;-77
2023/03/30 05:40:54;;;;;;;5.40;2.37;;;;;;;;;;5038686;28;20412;-78
2023/03/30 05:43:20;;;;;;;3.87;1.90;;;;;;;;;;5038497;28;20535;-77
2023/03/30 05:45:46;;;;;;;5.33;1.93;;;;;;;;;;5038371;28;20401;-78
2023/03/30 05:48:12;;;;;;;6.33;1.90;;;;;;;;;;5038400;28;20471;-78
2023/03/30 05:50:38;;;;;;;7.30;2.50;;;;;;;;;;5038497;28;20470;-78
2023/03/30 05:53:04;;;;;;;3.30;1.73;;;;;;;;;;5038025;28;20420;-78
2023/03/30 05:55:30;;;;;;;8.40;2.00;;;;;;;;;;5038189;28;20726;-78
2023/03/30 05:57:56;;;;;;;7.93;2.13;;;;;;;;;;5038457;28;20416;-78
2023/03/30 06:00:22;;;;;;;5.20;2.07;;;;;;;;;;5037910;28;20486;-78
2023/03/30 06:02:48;;;;;;;6.30;1.90;;;;;;;;;;5038105;28;20469;-78
2023/03/30 06:05:14;;;;;;;4.87;1.60;;;;;;;;;;5037887;28;20417;-78
2023/03/30 06:07:40;;;;;;;3.40;1.70;;;;;;;;;;5038226;28;20797;-78
2023/03/30 06:10:06;;;;;;;3.93;1.87;;;;;;;;;;5037464;28;20409;-78
2023/03/30 06:12:33;;;;;;;6.80;2.23;;;;;;;;;;5038274;28;20401;-78
2023/03/30 06:15:01;;;;;;;4.10;1.53;;;;;;;;;;5037963;28;20459;-78
2023/03/30 06:17:28;;;;;;;3.43;2.23;;;;;;;;;;5038004;28;20421;-78
2023/03/30 06:19:54;;;;;;;2.97;1.70;;;;;;;;;;5037983;28;20443;-78
2023/03/30 06:22:20;;;;;;;5.13;2.20;;;;;;;;;;5037282;28;20536;-78
2023/03/30 06:24:46;;;;;;;8.87;2.10;;;;;;;;;;5037628;28;20741;-78
2023/03/30 06:27:12;;;;;;;5.93;1.80;;;;;;;;;;5037456;28;20568;-78
2023/03/30 06:29:38;;;;;;;2.97;1.80;;;;;;;;;;5037439;28;20436;-78
2023/03/30 06:32:04;;;;;;;4.60;1.63;;;;;;;;;;5037353;28;20429;-78
2023/03/30 06:34:31;;;;;;;4.00;1.93;;;;;;;;;;5037817;28;20409;-78
2023/03/30 06:36:57;;;;;;;4.33;1.87;;;;;;;;;;5037389;28;20388;-84
2023/03/30 06:39:24;;;;;;;4.07;2.00;;;;;;;;;;5035770;28;20391;-84
2023/03/30 06:41:50;;;;;;;3.10;1.77;;;;;;;;;;5036477;28;20759;-80
2023/03/30 06:44:16;;;;;;;10.03;2.23;;;;;;;;;;5035912;28;20417;-80
2023/03/30 06:46:42;;;;;;;5.43;1.83;;;;;;;;;;5036120;28;20865;-80
2023/03/30 06:49:10;;;;;;;5.87;1.80;;;;;;;;;;5036370;28;20413;-80
2023/03/30 06:51:36;;;;;;;5.53;1.93;;;;;;;;;;5036419;28;20451;-80
2023/03/30 06:54:03;;;;;;;5.40;1.90;;;;;;;;;;5026217;28;20404;-80
2023/03/30 06:56:29;;;;;;;3.50;1.50;;;;;;;;;;5034335;28;20542;-80
2023/03/30 06:58:56;;;;;;;3.13;1.77;;;;;;;;;;5032585;28;20414;-80
2023/03/30 07:01:22;;;;;;;4.73;1.70;;;;;;;;;;5016045;28;20718;-80
2023/03/30 07:03:48;;;;;;;4.80;2.10;;;;;;;;;;5016499;28;20417;-80
2023/03/30 07:06:14;;;;;;;5.50;1.97;;;;;;;;;;5017043;28;20445;-80
2023/03/30 07:08:40;;;;;;;3.73;1.50;;;;;;;;;;5039409;28;20409;-80
2023/03/30 07:11:06;;;;;;;2.60;1.53;;;;;;;;;;5035734;28;20459;-80
2023/03/30 07:13:33;;;;;;;3.87;1.57;;;;;;;;;;5036508;28;20442;-80
2023/03/30 07:15:59;;;;;;;2.60;1.20;;;;;;;;;;5036245;28;20412;-80
2023/03/30 07:18:25;;;;;;;2.70;1.70;;;;;;;;;;5035476;28;20783;-79
2023/03/30 07:20:51;;;;;;;2.90;2.07;;;;;;;;;;5036386;28;20413;-79
2023/03/30 07:23:17;;;;;;;3.47;1.70;;;;;;;;;;5035632;28;20440;-79
2023/03/30 07:25:44;;;;;;;6.20;2.03;;;;;;;;;;5035819;28;20459;-79
2023/03/30 07:28:10;;;;;;;2.07;1.33;;;;;;;;;;5035939;28;20555;-79
2023/03/30 07:30:36;;;;;;;5.17;1.33;;;;;;;;;;5036003;28;20799;-79
2023/03/30 07:33:02;;;;;;;5.33;1.63;;;;;;;;;;5035911;28;20761;-79
2023/03/30 07:35:28;;;;;;;4.23;1.17;;;;;;;;;;5035730;28;20416;-79
2023/03/30 07:37:54;;;;;;;3.63;1.50;;;;;;;;;;5035606;28;20417;-79
2023/03/30 07:40:20;;;;;;;3.80;1.60;;;;;;;;;;5035040;28;20420;-79
2023/03/30 07:42:46;;;;;;;3.93;1.50;;;;;;;;;;5035594;28;20405;-79
2023/03/30 07:45:13;;;;;;;2.13;1.60;;;;;;;;;;5034454;28;20405;-80
2023/03/30 07:47:39;;;;;;;3.20;1.90;;;;;;;;;;5035673;28;20499;-80
2023/03/30 07:50:05;;;;;;;6.00;1.70;;;;;;;;;;5035660;28;20405;-79
2023/03/30 07:52:31;;;;;;;2.37;1.47;;;;;;;;;;5035253;28;20437;-79
2023/03/30 07:54:57;;;;;;;2.53;1.53;;;;;;;;;;5035479;28;20408;-79
2023/03/30 07:57:24;;;;;;;6.63;1.77;;;;;;;;;;5034661;28;20441;-80
2023/03/30 07:59:50;;;;;;;4.20;1.83;;;;;;;;;;5035094;28;20473;-80
2023/03/30 08:02:16;;;;;;;3.03;1.60;;;;;;;;;;5035039;28;20511;-80
2023/03/30 08:04:43;;;;;;;7.73;2.03;;;;;;;;;;5035453;28;20412;-80
2023/03/30 08:07:10;;;;;;;4.37;2.10;;;;;;;;;;5034740;28;20968;-79
2023/03/30 08:09:36;;;;;;;4.63;1.87;;;;;;;;;;5035373;28;20417;-80
2023/03/30 08:12:02;;;;;;;3.30;1.67;;;;;;;;;;5035254;28;20407;-80
2023/03/30 08:14:28;;;;;;;2.50;2.23;;;;;;;;;;5034925;28;20770;-80
2023/03/30 08:16:54;;;;;;;7.23;2.10;;;;;;;;;;5035042;28;20832;-80
2023/03/30 08:19:20;;;;;;;7.60;1.40;;;;;;;;;;5034829;28;20449;-80
2023/03/30 08:21:47;;;;;;;6.70;1.70;;;;;;;;;;5034824;28;20436;-80
2023/03/30 08:24:13;;;;;;;2.77;1.27;;;;;;;;;;5034888;28;20417;-80
2023/03/30 08:26:39;;;;;;;2.90;1.70;;;;;;;;;;5031910;28;21047;-80
2023/03/30 08:29:05;;;;;;;6.00;2.00;;;;;;;;;;5025897;28;20394;-80
2023/03/30 08:31:36;;;;;;;4.17;1.83;;;;;;;;;;5023264;28;20388;-80
2023/03/30 08:34:03;;;;;;;3.07;1.47;;;;;;;;;;5029075;28;20424;-80
2023/03/30 08:36:29;;;;;;;3.43;1.40;;;;;;;;;;5034660;28;20408;-80
2023/03/30 08:38:55;;;;;;;5.77;1.40;;;;;;;;;;5034772;28;20456;-80
2023/03/30 08:41:27;;;;;;;4.57;1.40;;;;;;;;;;5034639;28;20412;-80
2023/03/30 08:44:14;;;;;;;5.00;1.33;;;;;;;;;;5034880;28;20416;-80
2023/03/30 08:46:41;;;;;;;5.17;2.20;;;;;;;;;;5035106;28;20457;-79
2023/03/30 08:49:12;;;;;;;3.77;1.57;;;;;;;;;;5034504;28;20437;-80
2023/03/30 08:51:38;;;;;;;5.83;2.10;;;;;;;;;;5034935;28;20891;-79
2023/03/30 08:54:05;;;;;;;2.90;1.20;;;;;;;;;;5027127;28;20387;-79
2023/03/30 08:56:33;;;;;;;4.23;1.83;;;;;;;;;;5023373;28;20406;-79
2023/03/30 08:59:22;;;;;;;5.03;1.80;;;;;;;;;;5019643;28;20423;-79
2023/03/30 09:01:54;;;;;;;3.80;1.23;;;;;;;;;;4982282;28;20527;-79
2023/03/30 09:04:32;;;;;;;13.73;1.93;;;;;;;;;;5019205;28;20417;-79
2023/03/30 09:07:01;;;;;;;12.90;1.90;;;;;;;;;;5027608;28;20458;-79
2023/03/30 09:09:30;;;;;;;5.97;1.50;;;;;;;;;;5039028;28;20413;-79
2023/03/30 09:12:03;;;;;;;2.20;1.57;;;;;;;;;;5038970;28;20511;-79
2023/03/30 09:14:38;;;;;;;7.17;2.23;;;;;;;;;;5038749;28;20926;-79
2023/03/30 09:17:16;;;;;;;4.13;1.60;;;;;;;;;;5039121;28;20404;-79
2023/03/30 09:19:47;;;;;;;3.57;1.57;;;;;;;;;;5039233;28;20440;-80
2023/03/30 09:22:15;;;;;;;5.43;1.40;;;;;;;;;;5038859;28;20427;-81
2023/03/30 09:24:40;;;;;;;4.77;0.83;;;;;;;;;;5038725;28;20417;-82
2023/03/30 09:27:07;;;;;;;6.80;1.60;;;;;;;;;;5038877;28;20449;-80
2023/03/30 09:29:38;;;;;;;5.95;1.10;;;;;;;;;;5038580;28;20420;-80
2023/03/30 09:32:12;;;;;;;6.90;1.20;;;;;;;;;;5021028;28;20579;-80
2023/03/30 09:34:43;;;;;;;7.38;1.40;;;;;;;;;;5039360;28;20188;-79
2023/03/30 09:37:10;;;;;;;5.30;1.27;;;;;;;;;;5039398;28;20570;-79
2023/03/30 09:39:37;;;;;;;6.70;1.05;;;;;;;;;;5038643;28;20175;-78
2023/03/30 09:42:18;;;;;;;6.40;1.42;;;;;;;;;;5038999;28;20249;-79
2023/03/30 09:44:49;;;;;;;6.97;1.48;;;;;;;;;;5038939;28;20174;-79
2023/03/30 09:47:21;;;;;;;2.42;1.48;;;;;;;;;;5020702;28;20256;-80
2023/03/30 09:49:47;;;;;;;9.15;1.60;;;;;;;;;;5038753;28;20209;-79
2023/03/30 09:52:21;;;;;;;12.20;2.05;;;;;;;;;;5037996;28;20186;-81
2023/03/30 09:54:47;;;;;;;4.47;1.15;;;;;;;;;;5038748;28;20171;-80
2023/03/30 09:57:29;;;;;;;6.30;1.50;;;;;;;;;;5038030;28;20182;-80
2023/03/30 09:59:56;;;;;;;3.92;1.35;;;;;;;;;;5037988;28;20174;-81
2023/03/30 10:02:27;;;;;;;3.42;0.98;;;;;;;;;;5037695;28;20258;-80
2023/03/30 10:04:53;;;;;;;6.25;2.05;;;;;;;;;;5037831;28;20182;-80
2023/03/30 10:07:27;;;;;;;5.97;1.20;;;;;;;;;;5036906;28;20621;-80
2023/03/30 10:09:53;;;;;;;4.18;1.45;;;;;;;;;;5037812;28;20189;-81
2023/03/30 10:12:21;;;;;;;4.90;1.17;;;;;;;;;;5038167;28;20181;-81
2023/03/30 10:14:52;;;;;;;8.43;1.13;;;;;;;;;;5037930;28;20634;-80
2023/03/30 10:17:20;;;;;;;7.10;1.10;;;;;;;;;;5037791;28;20189;-80
2023/03/30 10:19:46;;;;;;;2.88;1.10;;;;;;;;;;5037899;28;20516;-80
2023/03/30 10:22:16;;;;;;;2.45;1.10;;;;;;;;;;5038166;28;20178;-80
2023/03/30 10:24:49;;;;;;;2.40;0.82;;;;;;;;;;5019917;28;20185;-80
2023/03/30 10:27:15;;;;;;;2.65;1.10;;;;;;;;;;5033029;28;20190;-83
2023/03/30 10:29:49;;;;;;;5.47;1.30;;;;;;;;;;5025880;28;20190;-80
2023/03/30 10:32:18;;;;;;;2.15;0.80;;;;;;;;;;5017880;28;20839;-81
2023/03/30 10:34:46;;;;;;;2.55;1.00;;;;;;;;;;5018414;28;20547;-80
2023/03/30 10:37:21;;;;;;;11.20;1.42;;;;;;;;;;5025674;28;20598;-80
2023/03/30 10:39:48;;;;;;;4.78;1.05;;;;;;;;;;5023267;28;20182;-80
2023/03/30 10:42:16;;;;;;;4.37;1.07;;;;;;;;;;5017622;28;20512;-80
2023/03/30 10:44:55;;;;;;;2.70;1.10;;;;;;;;;;5017903;28;20437;-79
2023/03/30 10:47:30;;;;;;;2.30;0.90;;;;;;;;;;5017211;28;20519;-81
2023/03/30 10:49:56;;;;;;;1.70;0.90;;;;;;;;;;5017661;28;20421;-81
2023/03/30 10:52:29;;;;;;;1.93;0.77;;;;;;;;;;5017133;28;20406;-81
2023/03/30 10:55:15;;;;;;;2.00;1.13;;;;;;;;;;5017215;28;20405;-82
2023/03/30 10:57:50;;;;;;;5.03;0.90;;;;;;;;;;5017074;28;20456;-81
2023/03/30 11:00:19;;;;;;;3.17;1.17;;;;;;;;;;5016818;28;20486;-83
2023/03/30 11:02:45;;;;;;;4.00;1.10;;;;;;;;;;5017153;28;20482;-80
2023/03/30 11:05:16;;;;;;;3.80;1.47;;;;;;;;;;5016840;28;20783;-80
2023/03/30 11:07:48;;;;;;;4.37;1.13;;;;;;;;;;5016712;28;20444;-81
2023/03/30 11:10:27;;;;;;;5.83;1.37;;;;;;;;;;5016447;28;20497;-81
2023/03/30 11:12:56;;;;;;;3.60;1.13;;;;;;;;;;5017143;28;20402;-81
2023/03/30 11:15:35;;;;;;;4.37;1.30;;;;;;;;;;5016563;28;20431;-82
2023/03/30 11:18:17;;;;;;;5.17;2.10;;;;;;;;;;5016982;28;20404;-80
2023/03/30 11:20:48;;;;;;;6.10;2.20;;;;;;;;;;5016900;28;20460;-80
2023/03/30 11:23:22;;;;;;;7.43;1.77;;;;;;;;;;5017117;28;20516;-81
2023/03/30 11:25:53;;;;;;;9.63;1.97;;;;;;;;;;5016844;28;20828;-81
2023/03/30 11:28:25;;;;;;;20.03;2.20;;;;;;;;;;5017133;28;20466;-82
2023/03/30 11:30:54;;;;;;;7.63;2.03;;;;;;;;;;5016473;28;20518;-81
2023/03/30 11:33:28;;;;;;;4.00;1.37;;;;;;;;;;5016086;28;20413;-81
2023/03/30 11:36:10;;;;;;;4.97;1.37;;;;;;;;;;5017009;28;20807;-81
2023/03/30 11:38:40;;;;;;;6.30;1.53;;;;;;;;;;5015987;28;20437;-82
2023/03/30 11:41:11;;;;;;;4.47;1.73;;;;;;;;;;5016245;28;20410;-81
2023/03/30 11:43:37;;;;;;;8.10;2.23;;;;;;;;;;5015900;28;20442;-81
2023/03/30 11:46:15;;;;;;;8.13;1.60;;;;;;;;;;5015809;28;20422;-80
2023/03/30 11:48:56;;;;;;;3.80;1.33;;;;;;;;;;5016092;28;20607;-81
2023/03/30 11:51:34;;;;;;;3.70;1.43;;;;;;;;;;5016029;28;20406;-81
2023/03/30 11:54:00;;;;;;;6.33;1.20;;;;;;;;;;5016336;28;20414;-80
2023/03/30 11:56:45;;;;;;;2.27;1.00;;;;;;;;;;5015704;28;20392;-82
2023/03/30 11:59:11;;;;;;;1.53;0.70;;;;;;;;;;4998164;28;20450;-81
2023/03/30 12:01:44;;;;;;;1.17;0.60;;;;;;;;;;5015208;28;20527;-81
2023/03/30 12:04:14;;;;;;;2.60;0.90;;;;;;;;;;5016513;28;20751;-81
2023/03/30 12:06:41;;;;;;;2.83;1.07;;;;;;;;;;4997944;28;21087;-81
2023/03/30 12:09:10;;;;;;;1.30;0.70;;;;;;;;;;5015408;28;20380;-81
2023/03/30 12:12:05;;;;;;;2.73;1.43;;;;;;;;;;5015317;28;20387;-81
2023/03/30 12:14:31;;;;;;;2.83;1.03;;;;;;;;;;4998688;28;20904;-81
2023/03/30 12:17:01;;;;;;;2.80;1.50;;;;;;;;;;5015447;28;20413;-81
2023/03/30 12:19:30;;;;;;;5.07;1.50;;;;;;;;;;5014981;28;20389;-81
2023/03/30 12:22:10;;;;;;;4.73;1.70;;;;;;;;;;5015428;28;20395;-81
2023/03/30 12:24:40;;;;;;;3.67;1.80;;;;;;;;;;5015026;28;20425;-81
2023/03/30 12:27:06;;;;;;;5.00;1.93;;;;;;;;;;5015573;28;20904;-81
2023/03/30 12:29:52;;;;;;;3.53;1.30;;;;;;;;;;5014981;28;20471;-81
2023/03/30 12:32:19;;;;;;;8.77;1.83;;;;;;;;;;5015728;28;20432;-81
2023/03/30 12:34:45;;;;;;;7.43;1.50;;;;;;;;;;5015415;28;20410;-81
2023/03/30 12:37:32;;;;;;;5.30;1.33;;;;;;;;;;5015717;28;20464;-81
2023/03/30 12:40:07;;;;;;;7.00;1.50;;;;;;;;;;5015928;28;20448;-80
2023/03/30 12:42:38;;;;;;;5.23;1.73;;;;;;;;;;5015398;28;20892;-80
2023/03/30 12:45:10;;;;;;;7.37;2.13;;;;;;;;;;5015724;28;20414;-80
2023/03/30 12:47:36;;;;;;;7.17;1.40;;;;;;;;;;5015231;28;20830;-80
2023/03/30 12:50:31;;;;;;;3.10;1.60;;;;;;;;;;5015754;28;20410;-80
2023/03/30 12:53:24;;;;;;;5.73;2.03;;;;;;;;;;4998682;28;20434;-80
2023/03/30 12:55:56;;;;;;;2.90;1.30;;;;;;;;;;5015785;28;20448;-80
2023/03/30 12:58:41;;;;;;;7.47;1.73;;;;;;;;;;5015918;28;20506;-80
2023/03/30 13:01:26;;;;;;;1.77;1.10;;;;;;;;;;5015670;28;20466;-84
2023/03/30 13:03:59;;;;;;;1.67;1.40;;;;;;;;;;5015470;28;20477;-82
2023/03/30 13:06:28;;;;;;;5.10;1.30;;;;;;;;;;5015015;28;20744;-84
2023/03/30 13:08:55;;;;;;;7.00;1.13;;;;;;;;;;5015152;28;20501;-82
2023/03/30 13:11:22;;;;;;;2.17;1.48;;;;;;;;;;5015271;28;20409;-82
2023/03/30 13:13:50;;;;;;;3.15;0.93;;;;;;;;;;5015068;28;20183;-82
2023/03/30 13:16:35;;;;;;;3.67;0.98;;;;;;;;;;5014870;28;20171;-84
2023/03/30 13:19:13;;;;;;;6.05;1.30;;;;;;;;;;5014899;28;20175;-84
2023/03/30 13:21:49;;;;;;;4.13;1.38;;;;;;;;;;5033704;28;20184;-83
2023/03/30 13:24:27;;;;;;;7.80;1.55;;;;;;;;;;5034353;28;20212;-83
2023/03/30 13:26:53;;;;;;;4.70;1.33;;;;;;;;;;5033850;28;20209;-83
2023/03/30 13:29:21;;;;;;;6.75;1.88;;;;;;;;;;5033992;28;20257;-83
2023/03/30 13:31:47;;;;;;;4.93;2.05;;;;;;;;;;5033657;28;20186;-83
2023/03/30 13:34:17;;;;;;;9.57;2.10;;;;;;;;;;5033794;28;20182;-81
2023/03/30 13:37:03;;;;;;;6.38;1.38;;;;;;;;;;5033772;28;20178;-81
2023/03/30 13:39:38;;;;;;;5.10;1.50;;;;;;;;;;5032886;28;20189;-82
2023/03/30 13:42:20;;;;;;;4.03;1.42;;;;;;;;;;5035033;28;20582;-81
2023/03/30 13:44:54;;;;;;;2.92;1.20;;;;;;;;;;5037832;28;20178;-81
2023/03/30 13:47:35;;;;;;;2.45;1.10;;;;;;;;;;5039151;28;20731;-79
2023/03/30 13:50:05;;;;;;;5.38;1.73;;;;;;;;;;5039542;28;20163;-80
2023/03/30 13:52:31;;;;;;;1.70;1.08;;;;;;;;;;5042391;28;20174;-80
2023/03/30 13:54:57;;;;;;;2.78;1.40;;;;;;;;;;5038438;28;20166;-80
2023/03/30 13:57:29;;;;;;;5.13;1.63;;;;;;;;;;5038154;28;20270;-80
2023/03/30 14:00:03;;;;;;;5.50;1.60;;;;;;;;;;5037415;28;20174;-80
2023/03/30 14:02:30;;;;;;;2.93;1.30;;;;;;;;;;5025944;28;20457;-80
2023/03/30 14:05:13;;;;;;;3.90;1.87;;;;;;;;;;5035300;28;20415;-80
2023/03/30 14:07:41;;;;;;;6.30;1.63;;;;;;;;;;5037730;28;20455;-81
2023/03/30 14:10:12;;;;;;;2.80;1.50;;;;;;;;;;5037997;28;20448;-80
2023/03/30 14:12:39;;;;;;;4.00;1.40;;;;;;;;;;5037936;28;20527;-80
2023/03/30 14:15:25;;;;;;;7.80;1.60;;;;;;;;;;5038028;28;20445;-80
2023/03/30 14:17:53;;;;;;;2.17;1.23;;;;;;;;;;5037338;28;20416;-79
2023/03/30 14:20:29;;;;;;;7.33;1.77;;;;;;;;;;5037440;28;20401;-80
2023/03/30 14:22:57;;;;;;;9.20;2.10;;;;;;;;;;5037687;28;20397;-80
2023/03/30 14:25:31;;;;;;;7.80;2.10;;;;;;;;;;5037151;28;20448;-80
2023/03/30 14:28:01;;;;;;;2.97;1.30;;;;;;;;;;5036922;28;21014;-81
2023/03/30 14:30:28;;;;;;;4.80;2.03;;;;;;;;;;5036993;28;20396;-81
2023/03/30 14:33:16;;;;;;;8.73;2.13;;;;;;;;;;5036920;28;20900;-80
2023/03/30 14:35:52;;;;;;;5.97;1.80;;;;;;;;;;5036480;28;20417;-80
2023/03/30 14:38:23;;;;;;;10.47;2.63;;;;;;;;;;5036995;28;20437;-79
2023/03/30 14:40:49;;;;;;;4.53;1.70;;;;;;;;;;5036692;28;20413;-80
2023/03/30 14:43:17;;;;;;;6.20;1.70;;;;;;;;;;5036643;28;20774;-80
2023/03/30 14:45:43;;;;;;;7.07;2.17;;;;;;;;;;5036639;28;20380;-80
2023/03/30 14:48:18;;;;;;;8.40;2.00;;;;;;;;;;5036385;28;20469;-80
2023/03/30 14:50:45;;;;;;;6.00;1.77;;;;;;;;;;5036459;28;20433;-81
2023/03/30 14:53:11;;;;;;;6.70;2.10;;;;;;;;;;5035706;28;20879;-81
2023/03/30 14:55:38;;;;;;;4.90;2.37;;;;;;;;;;5036150;28;20827;-81
2023/03/30 14:58:05;;;;;;;8.57;2.10;;;;;;;;;;5036178;28;20412;-81